Time;durP1;ratioP1;P1;durP2;ratioP2;P2;SDS_P1;SDS_P2;PMS_P1;PMS_P2;Temp;Humidity;BMP_temperature;BMP_pressure;BME280_temperature;BME280_humidity;BME280_pressure;Samples;Min_cycle;Max_cycle;Signal;HPM_P1;HPM_P2
2023/08/29 00:00:43;;;;;;;7.10;6.50;;;12.90;99.90;;;;;;5052017;28;20596;-76
2023/08/29 00:03:10;;;;;;;7.13;6.53;;;12.90;99.90;;;;;;5052279;28;20371;-76
2023/08/29 00:05:38;;;;;;;7.23;6.63;;;12.90;99.90;;;;;;5052166;28;20205;-76
2023/08/29 00:08:05;;;;;;;7.40;6.73;;;13.00;99.90;;;;;;5052590;28;20204;-76
2023/08/29 00:10:32;;;;;;;7.60;6.60;;;13.00;99.90;;;;;;5055854;28;20198;-76
2023/08/29 00:12:59;;;;;;;10.63;6.83;;;12.90;99.90;;;;;;5055804;28;20604;-77
2023/08/29 00:15:27;;;;;;;7.80;6.43;;;12.90;99.90;;;;;;5055947;28;20252;-77
2023/08/29 00:17:53;;;;;;;7.17;6.50;;;13.00;99.90;;;;;;5055843;28;20209;-77
2023/08/29 00:20:20;;;;;;;6.87;6.27;;;13.00;99.90;;;;;;5055721;28;20576;-76
2023/08/29 00:22:46;;;;;;;7.03;6.43;;;12.90;99.90;;;;;;5055448;28;20291;-76
2023/08/29 00:25:13;;;;;;;6.67;6.03;;;12.90;99.90;;;;;;5055555;28;20267;-76
2023/08/29 00:27:40;;;;;;;7.33;5.50;;;12.90;99.90;;;;;;5055812;28;20222;-77
2023/08/29 00:30:08;;;;;;;6.17;5.60;;;12.90;99.90;;;;;;5055657;28;20255;-76
2023/08/29 00:32:36;;;;;;;6.80;5.80;;;13.00;99.90;;;;;;5055608;28;20205;-77
2023/08/29 00:35:03;;;;;;;6.53;5.57;;;12.90;99.90;;;;;;5055387;28;20198;-76
2023/08/29 00:37:31;;;;;;;7.93;5.20;;;12.90;99.90;;;;;;5055414;28;20206;-75
2023/08/29 00:39:58;;;;;;;6.03;5.53;;;12.90;99.90;;;;;;5055277;28;20224;-76
2023/08/29 00:42:24;;;;;;;5.70;5.23;;;13.00;99.90;;;;;;5055425;28;20201;-76
2023/08/29 00:44:51;;;;;;;7.43;5.47;;;12.90;99.90;;;;;;5055322;28;20347;-75
2023/08/29 00:47:18;;;;;;;5.60;5.10;;;13.00;99.90;;;;;;5055336;28;20259;-76
2023/08/29 00:49:46;;;;;;;5.70;5.20;;;13.00;99.90;;;;;;5055192;28;20206;-76
2023/08/29 00:52:13;;;;;;;7.03;5.87;;;13.00;99.90;;;;;;5054980;28;20198;-76
2023/08/29 00:54:40;;;;;;;5.83;5.17;;;13.00;99.90;;;;;;5054990;28;20205;-76
2023/08/29 00:57:07;;;;;;;5.77;5.27;;;13.00;99.90;;;;;;5055186;28;20194;-76
2023/08/29 00:59:34;;;;;;;6.50;6.00;;;13.00;99.90;;;;;;5055009;28;20202;-76
2023/08/29 01:02:00;;;;;;;5.93;5.40;;;13.00;99.90;;;;;;5054920;28;20206;-76
2023/08/29 01:04:27;;;;;;;5.87;5.40;;;13.10;99.90;;;;;;5054761;28;20225;-76
2023/08/29 01:06:55;;;;;;;6.07;5.57;;;13.00;99.90;;;;;;5054865;28;20201;-76
2023/08/29 01:09:22;;;;;;;6.20;5.70;;;13.10;99.90;;;;;;5054955;28;20212;-76
2023/08/29 01:11:55;;;;;;;8.93;5.60;;;13.00;99.90;;;;;;5054862;28;20196;-76
2023/08/29 01:14:29;;;;;;;7.33;5.83;;;13.00;99.90;;;;;;5054835;28;20292;-77
2023/08/29 01:17:03;;;;;;;5.70;5.13;;;13.00;99.90;;;;;;5054651;28;20205;-76
2023/08/29 01:19:31;;;;;;;5.77;5.20;;;12.90;99.90;;;;;;5054490;28;20193;-76
2023/08/29 01:22:12;;;;;;;6.00;5.50;;;13.00;99.90;;;;;;5054336;28;20617;-76
2023/08/29 01:24:46;;;;;;;6.53;5.70;;;13.00;99.90;;;;;;5054459;28;20233;-76
2023/08/29 01:27:14;;;;;;;5.53;5.10;;;13.00;99.90;;;;;;5054517;28;20244;-76
2023/08/29 01:29:42;;;;;;;5.87;5.37;;;12.90;99.90;;;;;;5054476;28;20320;-76
2023/08/29 01:32:09;;;;;;;6.17;5.57;;;13.00;99.90;;;;;;5054287;28;20730;-77
2023/08/29 01:34:36;;;;;;;6.80;6.10;;;13.00;99.90;;;;;;5054340;28;20731;-76
2023/08/29 01:37:02;;;;;;;6.03;5.50;;;12.90;99.90;;;;;;5054325;28;20197;-77
2023/08/29 01:39:29;;;;;;;5.93;5.43;;;13.00;99.90;;;;;;5054219;28;20202;-76
2023/08/29 01:41:56;;;;;;;6.53;5.60;;;13.00;99.90;;;;;;5054175;28;20277;-77
2023/08/29 01:44:24;;;;;;;7.60;6.00;;;13.00;99.90;;;;;;5053939;28;20624;-76
2023/08/29 01:46:51;;;;;;;6.10;5.60;;;13.00;99.90;;;;;;5054302;28;20236;-77
2023/08/29 01:49:18;;;;;;;8.00;6.30;;;12.90;99.90;;;;;;5053818;28;20649;-77
2023/08/29 01:51:45;;;;;;;7.20;6.60;;;12.90;99.90;;;;;;5054058;28;20247;-77
2023/08/29 01:54:11;;;;;;;7.50;6.80;;;12.90;99.90;;;;;;5053936;28;20202;-78
2023/08/29 01:56:40;;;;;;;7.23;6.53;;;12.90;99.90;;;;;;5054085;28;20252;-78
2023/08/29 01:59:07;;;;;;;8.90;6.90;;;12.80;99.90;;;;;;5053834;28;20197;-77
2023/08/29 02:01:35;;;;;;;9.17;7.77;;;12.70;99.90;;;;;;5054002;28;20304;-77
2023/08/29 02:04:02;;;;;;;8.67;7.80;;;12.70;99.90;;;;;;5053972;28;20282;-76
2023/08/29 02:06:29;;;;;;;8.70;7.90;;;12.60;99.90;;;;;;5053897;28;20276;-77
2023/08/29 02:08:56;;;;;;;9.93;8.07;;;12.50;99.90;;;;;;5053823;28;20201;-77
2023/08/29 02:11:22;;;;;;;10.23;8.00;;;12.40;99.90;;;;;;5053712;28;20271;-77
2023/08/29 02:13:49;;;;;;;9.53;8.73;;;12.40;99.90;;;;;;5053689;28;20205;-77
2023/08/29 02:16:15;;;;;;;9.77;8.87;;;12.40;99.90;;;;;;5053580;28;20661;-77
2023/08/29 02:18:43;;;;;;;10.50;9.50;;;12.30;99.90;;;;;;5053618;28;20247;-77
2023/08/29 02:21:10;;;;;;;11.97;10.47;;;12.30;99.90;;;;;;5053393;28;20198;-76
2023/08/29 02:23:37;;;;;;;13.27;10.77;;;12.30;99.90;;;;;;5053409;28;20692;-77
2023/08/29 02:26:04;;;;;;;11.00;9.97;;;12.20;99.90;;;;;;5053255;28;20202;-75
2023/08/29 02:28:35;;;;;;;13.93;10.70;;;12.20;99.90;;;;;;5053155;28;20259;-75
2023/08/29 02:31:03;;;;;;;11.97;10.87;;;12.20;99.90;;;;;;5052867;28;20209;-75
2023/08/29 02:33:30;;;;;;;13.40;12.10;;;12.20;99.90;;;;;;5053231;28;20256;-75
2023/08/29 02:35:58;;;;;;;13.00;11.90;;;12.20;99.90;;;;;;5053076;28;20205;-75
2023/08/29 02:38:25;;;;;;;13.53;12.23;;;12.20;99.90;;;;;;5053001;28;20723;-74
2023/08/29 02:40:51;;;;;;;14.33;13.03;;;12.10;99.90;;;;;;5053047;28;20197;-74
2023/08/29 02:43:18;;;;;;;13.70;12.43;;;12.10;99.90;;;;;;5053109;28;20193;-74
2023/08/29 02:45:45;;;;;;;14.00;12.57;;;12.10;99.90;;;;;;5053080;28;20255;-74
2023/08/29 02:48:11;;;;;;;13.80;12.43;;;12.10;99.90;;;;;;5052951;28;20715;-73
2023/08/29 02:50:38;;;;;;;14.40;12.93;;;12.10;99.90;;;;;;5053012;28;20197;-73
2023/08/29 02:53:06;;;;;;;14.83;13.40;;;12.00;99.90;;;;;;5052861;28;20649;-73
2023/08/29 02:55:33;;;;;;;16.40;13.97;;;12.00;99.90;;;;;;5052829;28;20243;-73
2023/08/29 02:57:59;;;;;;;16.50;14.33;;;12.00;99.90;;;;;;5052980;28;20201;-74
2023/08/29 03:00:26;;;;;;;16.73;15.03;;;12.00;99.90;;;;;;5052939;28;20255;-74
2023/08/29 03:02:52;;;;;;;16.60;14.40;;;12.00;99.90;;;;;;5052911;28;20554;-73
2023/08/29 03:05:19;;;;;;;16.07;14.57;;;12.00;99.90;;;;;;5052767;28;20232;-74
2023/08/29 03:07:45;;;;;;;16.60;15.10;;;11.90;99.90;;;;;;5052669;28;20201;-74
2023/08/29 03:10:13;;;;;;;16.33;14.83;;;12.00;99.90;;;;;;5052705;28;20653;-75
2023/08/29 03:12:40;;;;;;;16.53;14.93;;;12.00;99.90;;;;;;5052895;28;20259;-74
2023/08/29 03:15:08;;;;;;;17.20;15.60;;;12.00;99.90;;;;;;5052743;28;20205;-75
2023/08/29 03:17:35;;;;;;;17.80;15.97;;;12.00;99.90;;;;;;5052522;28;20722;-75
2023/08/29 03:20:01;;;;;;;17.40;15.63;;;12.00;99.90;;;;;;5052718;28;20198;-75
2023/08/29 03:22:28;;;;;;;17.00;15.40;;;12.00;99.90;;;;;;5052366;28;20225;-75
2023/08/29 03:24:55;;;;;;;16.47;14.97;;;12.10;99.90;;;;;;5052667;28;20230;-75
2023/08/29 03:27:23;;;;;;;15.93;14.43;;;12.00;99.90;;;;;;5052718;28;20201;-75
2023/08/29 03:29:52;;;;;;;18.13;16.40;;;12.10;99.90;;;;;;5052592;28;20244;-75
2023/08/29 03:32:19;;;;;;;17.53;15.83;;;12.10;99.90;;;;;;5052681;28;20208;-75
2023/08/29 03:34:45;;;;;;;17.30;15.50;;;12.00;99.90;;;;;;5052593;28;20201;-75
2023/08/29 03:37:12;;;;;;;17.00;15.47;;;12.10;99.90;;;;;;5052313;28;20247;-74
2023/08/29 03:39:38;;;;;;;17.47;15.87;;;12.10;99.90;;;;;;5052484;28;20202;-75
2023/08/29 03:42:05;;;;;;;16.80;15.10;;;12.00;99.90;;;;;;5052335;28;20267;-75
2023/08/29 03:44:33;;;;;;;19.60;17.03;;;12.00;99.90;;;;;;5055160;28;20754;-74
2023/08/29 03:47:00;;;;;;;18.03;16.17;;;12.00;99.90;;;;;;5056431;28;20197;-75
2023/08/29 03:49:26;;;;;;;17.50;15.90;;;12.00;99.90;;;;;;5056207;28;20676;-75
2023/08/29 03:51:53;;;;;;;18.33;16.60;;;12.00;99.90;;;;;;5056570;28;20252;-75
2023/08/29 03:54:20;;;;;;;17.00;15.40;;;12.00;99.90;;;;;;5056329;28;20259;-75
2023/08/29 03:56:47;;;;;;;17.37;15.67;;;12.00;99.90;;;;;;5056235;28;20201;-75
2023/08/29 03:59:14;;;;;;;19.93;16.00;;;11.90;99.90;;;;;;5056129;28;20546;-74
2023/08/29 04:01:42;;;;;;;19.40;16.53;;;11.90;99.90;;;;;;5056272;28;20240;-74
2023/08/29 04:04:09;;;;;;;18.20;16.30;;;11.90;99.90;;;;;;5056049;28;20585;-74
2023/08/29 04:06:35;;;;;;;19.57;17.57;;;11.90;99.90;;;;;;5055948;28;20650;-74
2023/08/29 04:09:03;;;;;;;19.00;17.00;;;11.90;99.90;;;;;;5056087;28;20208;-74
2023/08/29 04:11:30;;;;;;;19.00;17.10;;;11.90;99.90;;;;;;5056012;28;20209;-74
2023/08/29 04:13:57;;;;;;;19.40;17.37;;;11.90;99.90;;;;;;5055944;28;20202;-74
2023/08/29 04:16:24;;;;;;;19.53;17.63;;;11.80;99.90;;;;;;5056069;28;20711;-76
2023/08/29 04:18:52;;;;;;;18.73;16.93;;;11.90;99.90;;;;;;5056257;28;20197;-78
2023/08/29 04:21:19;;;;;;;18.87;16.87;;;11.90;99.90;;;;;;5056233;28;20320;-78
2023/08/29 04:23:45;;;;;;;19.20;17.33;;;11.90;99.90;;;;;;5056189;28;20259;-77
2023/08/29 04:26:12;;;;;;;20.07;18.07;;;11.90;99.90;;;;;;5056208;28;20599;-77
2023/08/29 04:28:38;;;;;;;20.67;18.67;;;11.90;99.90;;;;;;5056192;28;20193;-78
2023/08/29 04:31:09;;;;;;;20.60;18.40;;;11.90;99.90;;;;;;5056188;28;20262;-76
2023/08/29 04:33:35;;;;;;;22.87;20.30;;;11.90;99.90;;;;;;5056042;28;20206;-77
2023/08/29 04:36:04;;;;;;;21.90;19.53;;;11.90;99.90;;;;;;5056173;28;20228;-77
2023/08/29 04:38:32;;;;;;;21.53;19.40;;;11.90;99.90;;;;;;5056190;28;20202;-77
2023/08/29 04:40:58;;;;;;;21.63;19.63;;;12.00;99.90;;;;;;5055901;28;20197;-77
2023/08/29 04:43:25;;;;;;;22.77;20.37;;;12.00;99.90;;;;;;5055904;28;20205;-77
2023/08/29 04:45:53;;;;;;;22.40;20.20;;;12.00;99.90;;;;;;5055533;28;20233;-77
2023/08/29 04:48:19;;;;;;;22.90;20.60;;;12.00;99.90;;;;;;5055964;28;20201;-77
2023/08/29 04:50:46;;;;;;;22.17;19.90;;;12.00;99.90;;;;;;5055884;28;20711;-78
2023/08/29 04:53:14;;;;;;;23.57;21.17;;;12.10;99.90;;;;;;5055711;28;20202;-77
2023/08/29 04:55:41;;;;;;;23.20;21.03;;;12.10;99.90;;;;;;5055239;28;20201;-77
2023/08/29 04:58:07;;;;;;;21.97;19.67;;;12.10;99.90;;;;;;5055280;28;20251;-77
2023/08/29 05:00:34;;;;;;;22.43;20.13;;;12.10;99.90;;;;;;5055585;28;20252;-77
2023/08/29 05:03:04;;;;;;;22.33;20.07;;;12.10;99.90;;;;;;5055793;28;20198;-77
2023/08/29 05:05:30;;;;;;;22.80;20.37;;;12.10;99.90;;;;;;5055399;28;20257;-77
2023/08/29 05:07:57;;;;;;;22.80;20.50;;;12.10;99.90;;;;;;5055093;28;20201;-78
2023/08/29 05:10:25;;;;;;;22.00;20.00;;;12.10;99.90;;;;;;5055411;28;20209;-76
2023/08/29 05:12:52;;;;;;;22.23;20.03;;;12.20;99.90;;;;;;5055514;28;20198;-78
2023/08/29 05:15:18;;;;;;;21.53;19.37;;;12.20;99.90;;;;;;5055511;28;20202;-78
2023/08/29 05:17:45;;;;;;;22.97;20.27;;;12.30;99.90;;;;;;5055529;28;20343;-78
2023/08/29 05:20:12;;;;;;;22.83;19.80;;;12.20;99.90;;;;;;5054946;28;20216;-78
2023/08/29 05:22:39;;;;;;;22.03;19.93;;;12.30;99.90;;;;;;5054975;28;20229;-78
2023/08/29 05:25:06;;;;;;;19.93;18.03;;;12.30;99.90;;;;;;5054910;28;20693;-78
2023/08/29 05:27:34;;;;;;;20.40;18.40;;;12.30;99.90;;;;;;5054922;28;20205;-78
2023/08/29 05:30:01;;;;;;;20.33;18.23;;;12.30;99.90;;;;;;5054751;28;20727;-77
2023/08/29 05:32:28;;;;;;;20.83;18.83;;;12.20;99.90;;;;;;5054788;28;20201;-78
2023/08/29 05:34:54;;;;;;;21.23;18.97;;;12.30;99.90;;;;;;5054791;28;20216;-77
2023/08/29 05:37:21;;;;;;;20.77;18.77;;;12.30;99.90;;;;;;5054651;28;20604;-78
2023/08/29 05:39:48;;;;;;;20.63;18.53;;;12.30;99.90;;;;;;5054743;28;20256;-78
2023/08/29 05:42:14;;;;;;;19.83;17.87;;;12.30;99.90;;;;;;5054804;28;20208;-78
2023/08/29 05:44:42;;;;;;;18.50;16.70;;;12.30;99.90;;;;;;5054371;28;20685;-77
2023/08/29 05:47:09;;;;;;;20.23;18.23;;;12.30;99.90;;;;;;5054650;28;20252;-78
2023/08/29 05:49:35;;;;;;;19.50;16.93;;;12.40;99.90;;;;;;5054541;28;20646;-78
2023/08/29 05:52:02;;;;;;;20.70;18.60;;;12.40;99.90;;;;;;5054502;28;20251;-76
2023/08/29 05:54:29;;;;;;;19.23;17.43;;;12.40;99.90;;;;;;5054163;28;20267;-76
2023/08/29 05:56:56;;;;;;;19.50;17.70;;;12.40;99.90;;;;;;5054563;28;20681;-76
2023/08/29 05:59:22;;;;;;;18.00;16.20;;;12.40;99.90;;;;;;5054559;28;20198;-77
2023/08/29 06:01:51;;;;;;;18.37;16.57;;;12.40;99.90;;;;;;5054251;28;20218;-76
2023/08/29 06:04:18;;;;;;;18.93;17.03;;;12.40;99.90;;;;;;5053987;28;20208;-76
2023/08/29 06:06:44;;;;;;;17.93;16.13;;;12.40;99.90;;;;;;5053286;28;20243;-76
2023/08/29 06:09:11;;;;;;;18.47;16.77;;;12.50;99.90;;;;;;5053973;28;20198;-77
2023/08/29 06:11:37;;;;;;;17.90;16.20;;;12.50;99.90;;;;;;5054266;28;20212;-75
2023/08/29 06:14:04;;;;;;;17.47;15.77;;;12.50;99.90;;;;;;5053978;28;20719;-75
2023/08/29 06:16:31;;;;;;;17.87;16.17;;;12.50;99.90;;;;;;5053678;28;20205;-74
2023/08/29 06:18:59;;;;;;;16.50;15.00;;;12.50;99.90;;;;;;5053551;28;20255;-75
2023/08/29 06:21:25;;;;;;;16.60;15.00;;;12.50;99.90;;;;;;5053531;28;20316;-75
2023/08/29 06:23:52;;;;;;;16.43;14.93;;;12.50;99.90;;;;;;5053827;28;20197;-75
2023/08/29 06:26:19;;;;;;;15.30;13.90;;;12.60;99.90;;;;;;5053710;28;20275;-74
2023/08/29 06:28:45;;;;;;;16.13;14.53;;;12.60;99.90;;;;;;5053569;28;20202;-75
2023/08/29 06:31:12;;;;;;;15.03;13.73;;;12.60;99.90;;;;;;5053611;28;20202;-75
2023/08/29 06:33:39;;;;;;;16.67;15.17;;;12.60;99.90;;;;;;5053399;28;20194;-75
2023/08/29 06:36:07;;;;;;;16.10;14.70;;;12.60;99.90;;;;;;5053262;28;20542;-76
2023/08/29 06:38:35;;;;;;;16.93;15.13;;;12.60;99.90;;;;;;5053187;28;20263;-75
2023/08/29 06:41:02;;;;;;;16.30;14.70;;;12.60;99.90;;;;;;5053657;28;20233;-76
2023/08/29 06:43:29;;;;;;;16.67;15.23;;;12.50;99.90;;;;;;5053846;28;20208;-76
2023/08/29 06:45:56;;;;;;;17.30;15.70;;;12.60;99.90;;;;;;5053382;28;20221;-77
2023/08/29 06:48:23;;;;;;;18.43;16.53;;;12.60;99.90;;;;;;5052874;28;20201;-75
2023/08/29 06:50:49;;;;;;;16.00;14.47;;;12.60;99.90;;;;;;5052754;28;20201;-76
2023/08/29 06:53:17;;;;;;;15.63;14.23;;;12.60;99.90;;;;;;5054574;28;20603;-77
2023/08/29 06:55:46;;;;;;;17.53;15.83;;;12.60;99.90;;;;;;5049508;28;20268;-78
2023/08/29 06:58:13;;;;;;;16.60;15.00;;;12.60;99.90;;;;;;5033468;28;20228;-76
2023/08/29 07:00:40;;;;;;;18.63;14.83;;;12.60;99.90;;;;;;5033222;28;20237;-75
2023/08/29 07:03:06;;;;;;;15.37;14.00;;;12.70;99.90;;;;;;5033238;28;20226;-77
2023/08/29 07:05:33;;;;;;;17.03;15.50;;;12.70;99.90;;;;;;5033296;28;20222;-75
2023/08/29 07:08:00;;;;;;;17.27;15.63;;;12.70;99.90;;;;;;5033211;28;20206;-76
2023/08/29 07:10:28;;;;;;;17.73;16.10;;;12.70;99.90;;;;;;5032806;28;20198;-74
2023/08/29 07:12:55;;;;;;;18.07;16.20;;;12.70;99.90;;;;;;5032583;28;20202;-76
2023/08/29 07:15:22;;;;;;;17.50;15.80;;;12.70;99.90;;;;;;5033224;28;20577;-77
2023/08/29 07:17:49;;;;;;;17.70;15.93;;;12.80;99.90;;;;;;5033213;28;20225;-76
2023/08/29 07:20:16;;;;;;;17.13;15.63;;;12.80;99.90;;;;;;5033001;28;20653;-78
2023/08/29 07:22:43;;;;;;;17.17;15.33;;;12.80;99.90;;;;;;5033348;28;20273;-78
2023/08/29 07:25:11;;;;;;;18.67;16.87;;;12.80;99.90;;;;;;5033138;28;20313;-77
2023/08/29 07:27:39;;;;;;;17.80;16.20;;;12.80;99.90;;;;;;5033206;28;20286;-77
2023/08/29 07:30:07;;;;;;;16.17;14.77;;;12.90;99.90;;;;;;5033237;28;20203;-74
2023/08/29 07:32:34;;;;;;;16.97;15.47;;;12.90;99.90;;;;;;5045235;28;20201;-74
2023/08/29 07:35:02;;;;;;;16.33;14.93;;;12.90;99.90;;;;;;5045268;28;20224;-76
2023/08/29 07:37:28;;;;;;;15.80;14.30;;;12.90;99.90;;;;;;5032673;28;20221;-76
2023/08/29 07:39:55;;;;;;;16.00;14.53;;;12.80;99.90;;;;;;5032793;28;20205;-76
2023/08/29 07:42:22;;;;;;;16.23;14.63;;;12.90;99.90;;;;;;5032713;28;20198;-78
2023/08/29 07:44:50;;;;;;;16.13;14.50;;;12.90;99.90;;;;;;5032570;28;20264;-77
2023/08/29 07:47:16;;;;;;;15.90;14.40;;;12.90;99.90;;;;;;5032701;28;20206;-77
2023/08/29 07:49:43;;;;;;;15.30;13.87;;;12.90;99.90;;;;;;5032678;28;20720;-77
2023/08/29 07:52:10;;;;;;;16.27;14.67;;;12.90;99.90;;;;;;5032559;28;20195;-77
2023/08/29 07:54:36;;;;;;;15.83;14.33;;;13.00;99.90;;;;;;5032474;28;20202;-77
2023/08/29 07:57:03;;;;;;;15.13;13.73;;;12.90;99.90;;;;;;5032573;28;20203;-77
2023/08/29 07:59:30;;;;;;;16.13;14.63;;;13.00;99.90;;;;;;5032351;28;20194;-76
2023/08/29 08:01:58;;;;;;;15.80;14.40;;;13.10;99.90;;;;;;5032514;28;20229;-76
2023/08/29 08:04:24;;;;;;;16.10;14.57;;;13.10;99.90;;;;;;5032557;28;20202;-77
2023/08/29 08:06:51;;;;;;;15.30;14.00;;;13.10;99.90;;;;;;5031932;28;20222;-76
2023/08/29 08:09:18;;;;;;;16.57;15.03;;;13.10;99.90;;;;;;5032068;28;20198;-77
2023/08/29 08:11:45;;;;;;;16.43;15.03;;;13.00;99.90;;;;;;5032195;28;20205;-76
2023/08/29 08:14:12;;;;;;;16.50;15.00;;;13.00;99.90;;;;;;5032779;28;20206;-76
2023/08/29 08:16:39;;;;;;;17.13;15.63;;;13.00;99.90;;;;;;5032264;28;20209;-76
2023/08/29 08:19:07;;;;;;;17.20;15.63;;;13.10;99.90;;;;;;5032210;28;20229;-77
2023/08/29 08:21:34;;;;;;;17.53;16.00;;;13.10;99.90;;;;;;5032170;28;20230;-77
2023/08/29 08:24:01;;;;;;;18.13;16.37;;;13.20;99.90;;;;;;5032260;28;20206;-76
2023/08/29 08:26:28;;;;;;;17.23;15.63;;;13.10;99.90;;;;;;5032076;28;20227;-77
2023/08/29 08:28:54;;;;;;;18.13;16.43;;;13.20;99.90;;;;;;5032016;28;20659;-77
2023/08/29 08:31:21;;;;;;;17.37;15.83;;;13.20;99.90;;;;;;5036000;28;20252;-77
2023/08/29 08:33:48;;;;;;;17.33;15.73;;;13.30;99.90;;;;;;5035688;28;20221;-77
2023/08/29 08:36:16;;;;;;;16.13;14.67;;;13.40;99.90;;;;;;5035442;28;20244;-77
2023/08/29 08:38:42;;;;;;;16.30;15.00;;;13.50;99.90;;;;;;5035313;28;20696;-76
2023/08/29 08:41:11;;;;;;;14.53;13.23;;;13.60;99.90;;;;;;5035266;28;20210;-77
2023/08/29 08:43:40;;;;;;;12.73;11.73;;;13.70;99.90;;;;;;5018003;28;20202;-78
2023/08/29 08:46:08;;;;;;;12.60;11.40;;;13.70;99.90;;;;;;5035486;28;20237;-78
2023/08/29 08:48:35;;;;;;;13.40;12.20;;;13.80;99.90;;;;;;5035880;28;20198;-77
2023/08/29 08:51:04;;;;;;;12.67;11.47;;;14.00;99.90;;;;;;5050086;28;20535;-77
2023/08/29 08:53:33;;;;;;;11.80;10.80;;;14.30;99.90;;;;;;5055496;28;20323;-77
2023/08/29 08:56:02;;;;;;;11.30;10.30;;;14.50;99.90;;;;;;5055243;28;20206;-77
2023/08/29 08:58:29;;;;;;;9.10;8.37;;;14.70;99.90;;;;;;5055205;28;20610;-77
2023/08/29 09:00:55;;;;;;;8.17;7.50;;;14.60;99.90;;;;;;5055026;28;20277;-77
2023/08/29 09:03:22;;;;;;;7.80;7.13;;;14.70;99.90;;;;;;5055277;28;20197;-77
2023/08/29 09:05:49;;;;;;;6.70;6.13;;;14.90;99.90;;;;;;5055009;28;20353;-76
2023/08/29 09:08:17;;;;;;;5.73;5.23;;;14.90;99.90;;;;;;5055053;28;20198;-77
2023/08/29 09:10:45;;;;;;;5.17;4.77;;;14.90;99.90;;;;;;5055208;28;20224;-76
2023/08/29 09:13:16;;;;;;;4.93;4.40;;;14.70;99.90;;;;;;5055168;28;20194;-75
2023/08/29 09:15:43;;;;;;;5.13;4.60;;;14.60;99.90;;;;;;5054763;28;20285;-76
2023/08/29 09:18:13;;;;;;;5.00;4.60;;;14.50;99.90;;;;;;5054413;28;20202;-76
2023/08/29 09:20:43;;;;;;;6.27;4.53;;;14.40;99.90;;;;;;5054348;28;20284;-76
2023/08/29 09:23:21;;;;;;;5.07;4.67;;;14.20;99.90;;;;;;5054525;28;20228;-76
2023/08/29 09:25:55;;;;;;;6.17;5.50;;;14.20;99.90;;;;;;5054485;28;20225;-77
2023/08/29 09:28:22;;;;;;;6.53;6.00;;;14.10;99.90;;;;;;5054959;28;20201;-76
2023/08/29 09:30:49;;;;;;;7.07;6.47;;;14.10;99.90;;;;;;5054460;28;20673;-76
2023/08/29 09:33:20;;;;;;;7.50;6.90;;;14.10;99.90;;;;;;5054708;28;20206;-77
2023/08/29 09:35:47;;;;;;;7.70;7.10;;;14.00;99.90;;;;;;5054363;28;20720;-76
2023/08/29 09:38:13;;;;;;;9.20;7.77;;;14.00;99.90;;;;;;5054245;28;20202;-76
2023/08/29 09:40:46;;;;;;;10.70;8.30;;;14.00;99.90;;;;;;5054373;28;20248;-77
2023/08/29 09:43:15;;;;;;;9.27;8.43;;;14.00;99.90;;;;;;5054102;28;20555;-77
2023/08/29 09:45:42;;;;;;;9.47;8.67;;;14.10;99.90;;;;;;5054460;28;20197;-76
2023/08/29 09:48:09;;;;;;;9.90;8.93;;;14.20;99.90;;;;;;5054218;28;20209;-77
2023/08/29 09:50:37;;;;;;;10.27;9.20;;;14.20;99.90;;;;;;5054492;28;20248;-75
2023/08/29 09:53:05;;;;;;;10.13;9.10;;;14.30;99.90;;;;;;5054314;28;20787;-76
2023/08/29 09:55:34;;;;;;;9.63;8.87;;;14.30;99.90;;;;;;5054286;28;20197;-76
2023/08/29 09:58:04;;;;;;;10.73;9.73;;;14.50;99.90;;;;;;5054267;28;20267;-76
2023/08/29 10:00:33;;;;;;;9.93;9.13;;;14.60;99.90;;;;;;5053758;28;20193;-76
2023/08/29 10:03:03;;;;;;;10.70;9.60;;;14.60;99.90;;;;;;5054162;28;20258;-76
2023/08/29 10:05:35;;;;;;;10.20;9.33;;;14.50;99.90;;;;;;5054074;28;20285;-76
2023/08/29 10:08:06;;;;;;;9.83;8.93;;;14.60;99.90;;;;;;5053741;28;20206;-75
2023/08/29 10:10:34;;;;;;;10.10;9.20;;;14.50;99.90;;;;;;5053969;28;20239;-80
2023/08/29 10:13:02;;;;;;;9.97;9.17;;;14.50;99.90;;;;;;5053834;28;20205;-75
2023/08/29 10:15:30;;;;;;;9.93;9.10;;;14.70;99.90;;;;;;5054450;28;20256;-78
2023/08/29 10:17:59;;;;;;;9.07;8.27;;;14.90;99.90;;;;;;5054587;28;20205;-76
2023/08/29 10:20:27;;;;;;;9.07;8.37;;;15.00;99.90;;;;;;5054018;28;20251;-76
2023/08/29 10:22:55;;;;;;;8.27;7.57;;;15.00;99.90;;;;;;5053637;28;20655;-76
2023/08/29 10:25:23;;;;;;;8.77;7.97;;;15.10;99.90;;;;;;5056192;28;20198;-76
2023/08/29 10:27:50;;;;;;;9.27;8.57;;;14.90;99.90;;;;;;5053813;28;20303;-76
2023/08/29 10:30:17;;;;;;;9.50;8.70;;;14.70;99.90;;;;;;5054002;28;20194;-76
2023/08/29 10:32:46;;;;;;;9.17;8.43;;;14.80;99.90;;;;;;5054345;28;20217;-76
2023/08/29 10:35:18;;;;;;;10.33;9.43;;;14.90;99.90;;;;;;5054531;28;20193;-76
2023/08/29 10:37:45;;;;;;;9.47;8.70;;;15.20;99.90;;;;;;5054725;28;20203;-76
2023/08/29 10:40:13;;;;;;;9.60;8.70;;;15.40;99.90;;;;;;5058061;28;20201;-76
2023/08/29 10:42:51;;;;;;;8.67;7.93;;;15.30;99.90;;;;;;5059489;28;20194;-76
2023/08/29 10:45:19;;;;;;;7.53;6.93;;;15.40;99.90;;;;;;5058134;28;20698;-76
2023/08/29 10:47:46;;;;;;;8.40;7.50;;;15.50;99.90;;;;;;5060639;28;20252;-76
2023/08/29 10:50:21;;;;;;;8.57;7.27;;;15.50;99.90;;;;;;5060817;28;20194;-75
2023/08/29 10:52:50;;;;;;;7.97;7.27;;;15.40;99.90;;;;;;5059548;28;20228;-76
2023/08/29 10:55:22;;;;;;;8.30;7.60;;;15.40;99.90;;;;;;5061068;28;20208;-76
2023/08/29 10:57:49;;;;;;;9.00;8.23;;;15.40;99.90;;;;;;5061351;28;20285;-75
2023/08/29 11:00:18;;;;;;;8.43;7.73;;;15.20;99.90;;;;;;5057053;28;20201;-75
2023/08/29 11:02:47;;;;;;;9.90;8.90;;;15.10;99.90;;;;;;5052810;28;20206;-74
2023/08/29 11:05:15;;;;;;;9.03;8.13;;;15.00;99.90;;;;;;5052920;28;20197;-73
2023/08/29 11:07:43;;;;;;;9.97;9.07;;;14.90;99.90;;;;;;5052703;28;20240;-74
2023/08/29 11:10:15;;;;;;;8.70;8.00;;;14.80;99.90;;;;;;5052650;28;20259;-74
2023/08/29 11:13:07;;;;;;;9.20;8.30;;;14.60;99.90;;;;;;5052749;28;20252;-75
2023/08/29 11:16:17;;;;;;;13.40;11.70;;;14.50;99.90;;;;;;5052463;28;20204;-75
2023/08/29 11:18:43;;;;;;;10.47;9.57;;;14.40;99.90;;;;;;5052569;28;20680;-74
2023/08/29 11:21:11;;;;;;;10.67;9.00;;;14.30;99.90;;;;;;5052492;28;20198;-74
2023/08/29 11:23:40;;;;;;;10.03;9.23;;;14.30;99.90;;;;;;5052463;28;20231;-73
2023/08/29 11:26:08;;;;;;;11.03;10.13;;;14.40;99.90;;;;;;5052814;28;20202;-77
2023/08/29 11:28:39;;;;;;;10.63;9.73;;;14.50;99.90;;;;;;5052697;28;20606;-77
2023/08/29 11:31:05;;;;;;;9.63;8.83;;;14.70;99.90;;;;;;5052411;28;20589;-76
2023/08/29 11:33:33;;;;;;;9.00;8.20;;;14.90;99.90;;;;;;5052568;28;20654;-76
2023/08/29 11:36:02;;;;;;;9.03;8.07;;;15.00;99.90;;;;;;5052091;28;20201;-74
2023/08/29 11:38:29;;;;;;;8.57;7.93;;;15.20;99.90;;;;;;5052467;28;20857;-77
2023/08/29 11:40:59;;;;;;;8.23;7.53;;;15.40;99.90;;;;;;5052563;28;20194;-77
2023/08/29 11:43:26;;;;;;;7.70;7.10;;;15.40;99.90;;;;;;5052369;28;20193;-82
2023/08/29 11:45:54;;;;;;;6.67;6.07;;;15.40;99.90;;;;;;5052930;28;20707;-75
2023/08/29 11:48:24;;;;;;;7.50;6.90;;;15.60;99.90;;;;;;5045360;28;20237;-75
2023/08/29 11:50:55;;;;;;;7.45;6.85;;;15.80;99.90;;;;;;5049907;28;20202;-75
2023/08/29 11:53:23;;;;;;;7.15;6.47;;;15.70;99.90;;;;;;5051999;28;20602;-76
2023/08/29 11:55:51;;;;;;;6.40;5.90;;;15.80;99.90;;;;;;5052147;28;20247;-76
2023/08/29 11:58:19;;;;;;;6.82;6.20;;;15.90;99.90;;;;;;5051961;28;20201;-77
2023/08/29 12:00:48;;;;;;;5.88;5.45;;;15.80;99.90;;;;;;5051817;28;20201;-78
2023/08/29 12:03:19;;;;;;;6.22;5.40;;;15.80;99.90;;;;;;5033522;28;20204;-78
2023/08/29 12:05:46;;;;;;;8.18;7.38;;;15.60;99.90;;;;;;5055092;28;20202;-77
2023/08/29 12:08:12;;;;;;;5.72;5.28;;;15.70;99.90;;;;;;5055648;28;20355;-75
2023/08/29 12:10:49;;;;;;;7.45;5.00;;;15.70;99.90;;;;;;5055637;28;20649;-76
2023/08/29 12:13:16;;;;;;;5.82;5.30;;;15.90;99.90;;;;;;5055630;28;20197;-75
2023/08/29 12:15:44;;;;;;;4.60;4.18;;;16.00;99.90;;;;;;5055805;28;20235;-75
2023/08/29 12:18:20;;;;;;;5.40;4.78;;;16.00;99.90;;;;;;5055783;28;20197;-73
2023/08/29 12:20:47;;;;;;;4.20;3.90;;;15.90;99.90;;;;;;5035831;28;20202;-73
2023/08/29 12:23:23;;;;;;;4.10;3.70;;;15.90;99.90;;;;;;5035195;28;20234;-72
2023/08/29 12:25:50;;;;;;;4.80;4.30;;;15.70;99.90;;;;;;5035509;28;20244;-74
2023/08/29 12:28:16;;;;;;;4.80;4.40;;;15.80;99.90;;;;;;5035249;28;20230;-76
2023/08/29 12:30:44;;;;;;;4.03;3.72;;;16.00;99.90;;;;;;5048210;28;20658;-77
2023/08/29 12:33:11;;;;;;;4.22;3.80;;;16.10;99.90;;;;;;5035146;28;20674;-75
2023/08/29 12:35:39;;;;;;;4.32;3.33;;;16.30;99.90;;;;;;5039737;28;20202;-76
2023/08/29 12:38:06;;;;;;;4.25;3.28;;;16.20;99.90;;;;;;5034845;28;20210;-75